sensor_id;sensor_type;location;lat;lon;timestamp;temperature;humidity
64689;DHT22;62504;46.070;14.492;2024-02-23T00:02:25;10.10;99.90
64689;DHT22;62504;46.070;14.492;2024-02-23T00:04:50;10.00;99.90
64689;DHT22;62504;46.070;14.492;2024-02-23T00:07:16;10.00;99.90
64689;DHT22;62504;46.070;14.492;2024-02-23T00:09:42;10.30;99.90
64689;DHT22;62504;46.070;14.492;2024-02-23T00:12:07;10.40;99.90
64689;DHT22;62504;46.070;14.492;2024-02-23T00:14:36;10.20;99.90
64689;DHT22;62504;46.070;14.492;2024-02-23T00:17:05;10.00;99.90
64689;DHT22;62504;46.070;14.492;2024-02-23T00:19:31;10.10;99.90
64689;DHT22;62504;46.070;14.492;2024-02-23T00:21:57;10.00;99.90
64689;DHT22;62504;46.070;14.492;2024-02-23T00:24:25;10.00;99.90
64689;DHT22;62504;46.070;14.492;2024-02-23T00:26:50;10.10;99.90
64689;DHT22;62504;46.070;14.492;2024-02-23T00:29:17;10.10;99.90
64689;DHT22;62504;46.070;14.492;2024-02-23T00:31:43;10.00;99.90
64689;DHT22;62504;46.070;14.492;2024-02-23T00:34:10;9.80;99.90
64689;DHT22;62504;46.070;14.492;2024-02-23T00:36:39;9.90;99.90
64689;DHT22;62504;46.070;14.492;2024-02-23T00:39:05;9.90;99.90
64689;DHT22;62504;46.070;14.492;2024-02-23T00:41:33;10.00;99.90
64689;DHT22;62504;46.070;14.492;2024-02-23T00:43:58;10.00;99.90
64689;DHT22;62504;46.070;14.492;2024-02-23T00:46:24;9.90;99.90
64689;DHT22;62504;46.070;14.492;2024-02-23T00:48:50;9.90;99.90
64689;DHT22;62504;46.070;14.492;2024-02-23T00:51:16;10.00;99.90
64689;DHT22;62504;46.070;14.492;2024-02-23T00:53:41;10.00;99.90
64689;DHT22;62504;46.070;14.492;2024-02-23T00:56:07;10.10;99.90
64689;DHT22;62504;46.070;14.492;2024-02-23T00:58:32;9.90;99.90
64689;DHT22;62504;46.070;14.492;2024-02-23T01:00:59;10.00;99.90
64689;DHT22;62504;46.070;14.492;2024-02-23T01:03:25;10.10;99.90
64689;DHT22;62504;46.070;14.492;2024-02-23T01:05:50;10.20;99.90
64689;DHT22;62504;46.070;14.492;2024-02-23T01:08:16;10.20;99.90
64689;DHT22;62504;46.070;14.492;2024-02-23T01:10:42;10.30;99.90
64689;DHT22;62504;46.070;14.492;2024-02-23T01:13:07;10.30;99.90
64689;DHT22;62504;46.070;14.492;2024-02-23T01:15:33;10.10;99.90
64689;DHT22;62504;46.070;14.492;2024-02-23T01:17:59;10.00;99.90
64689;DHT22;62504;46.070;14.492;2024-02-23T01:20:25;10.00;99.90
64689;DHT22;62504;46.070;14.492;2024-02-23T01:22:51;9.90;99.90
64689;DHT22;62504;46.070;14.492;2024-02-23T01:25:17;10.00;99.90
64689;DHT22;62504;46.070;14.492;2024-02-23T01:27:43;9.90;99.90
64689;DHT22;62504;46.070;14.492;2024-02-23T01:30:11;9.90;99.90
64689;DHT22;62504;46.070;14.492;2024-02-23T01:32:38;9.90;99.90
64689;DHT22;62504;46.070;14.492;2024-02-23T01:35:08;9.90;99.90
64689;DHT22;62504;46.070;14.492;2024-02-23T01:37:34;10.10;99.90
64689;DHT22;62504;46.070;14.492;2024-02-23T01:40:00;9.90;99.90
64689;DHT22;62504;46.070;14.492;2024-02-23T01:42:26;9.80;99.90
64689;DHT22;62504;46.070;14.492;2024-02-23T01:44:52;9.80;99.90
64689;DHT22;62504;46.070;14.492;2024-02-23T01:47:18;9.80;99.90
64689;DHT22;62504;46.070;14.492;2024-02-23T01:49:46;9.90;99.90
64689;DHT22;62504;46.070;14.492;2024-02-23T01:52:13;9.80;99.90
64689;DHT22;62504;46.070;14.492;2024-02-23T01:54:40;9.80;99.90
64689;DHT22;62504;46.070;14.492;2024-02-23T01:57:07;9.90;99.90
64689;DHT22;62504;46.070;14.492;2024-02-23T01:59:35;9.80;99.90
64689;DHT22;62504;46.070;14.492;2024-02-23T02:02:03;9.80;99.90
64689;DHT22;62504;46.070;14.492;2024-02-23T02:04:28;9.80;99.90
64689;DHT22;62504;46.070;14.492;2024-02-23T02:06:55;9.80;99.90
64689;DHT22;62504;46.070;14.492;2024-02-23T02:09:21;10.00;99.90
64689;DHT22;62504;46.070;14.492;2024-02-23T02:11:47;9.80;99.90
64689;DHT22;62504;46.070;14.492;2024-02-23T02:14:14;9.70;99.90
64689;DHT22;62504;46.070;14.492;2024-02-23T02:16:39;9.70;99.90
64689;DHT22;62504;46.070;14.492;2024-02-23T02:19:05;9.70;99.90
64689;DHT22;62504;46.070;14.492;2024-02-23T02:21:32;9.70;99.90
64689;DHT22;62504;46.070;14.492;2024-02-23T02:23:58;9.70;99.90
64689;DHT22;62504;46.070;14.492;2024-02-23T02:26:24;9.80;99.90
64689;DHT22;62504;46.070;14.492;2024-02-23T02:28:49;9.80;99.90
64689;DHT22;62504;46.070;14.492;2024-02-23T02:31:15;9.80;99.90
64689;DHT22;62504;46.070;14.492;2024-02-23T02:33:41;9.80;99.90
64689;DHT22;62504;46.070;14.492;2024-02-23T02:36:07;10.00;99.90
64689;DHT22;62504;46.070;14.492;2024-02-23T02:38:33;10.00;99.90
64689;DHT22;62504;46.070;14.492;2024-02-23T02:40:59;9.90;99.90
64689;DHT22;62504;46.070;14.492;2024-02-23T02:43:27;9.90;99.90
64689;DHT22;62504;46.070;14.492;2024-02-23T02:45:53;10.00;99.90
64689;DHT22;62504;46.070;14.492;2024-02-23T02:48:19;10.00;99.90
64689;DHT22;62504;46.070;14.492;2024-02-23T02:50:45;9.90;99.90
64689;DHT22;62504;46.070;14.492;2024-02-23T02:53:11;9.80;99.90
64689;DHT22;62504;46.070;14.492;2024-02-23T02:55:40;9.80;99.90
64689;DHT22;62504;46.070;14.492;2024-02-23T02:58:06;9.90;99.90
64689;DHT22;62504;46.070;14.492;2024-02-23T03:00:32;10.00;99.90
64689;DHT22;62504;46.070;14.492;2024-02-23T03:02:58;9.90;99.90
64689;DHT22;62504;46.070;14.492;2024-02-23T03:05:23;9.80;99.90
64689;DHT22;62504;46.070;14.492;2024-02-23T03:07:49;9.70;99.90
64689;DHT22;62504;46.070;14.492;2024-02-23T03:10:15;9.80;99.90
64689;DHT22;62504;46.070;14.492;2024-02-23T03:12:41;9.70;99.90
64689;DHT22;62504;46.070;14.492;2024-02-23T03:15:07;9.70;99.90
64689;DHT22;62504;46.070;14.492;2024-02-23T03:17:34;9.70;99.90
64689;DHT22;62504;46.070;14.492;2024-02-23T03:19:59;9.70;99.90
64689;DHT22;62504;46.070;14.492;2024-02-23T03:22:25;9.60;99.90
64689;DHT22;62504;46.070;14.492;2024-02-23T03:24:51;9.70;99.90
64689;DHT22;62504;46.070;14.492;2024-02-23T03:27:16;9.70;99.90
64689;DHT22;62504;46.070;14.492;2024-02-23T03:29:42;9.70;99.90
64689;DHT22;62504;46.070;14.492;2024-02-23T03:32:08;9.80;99.90
64689;DHT22;62504;46.070;14.492;2024-02-23T03:34:33;9.70;99.90
64689;DHT22;62504;46.070;14.492;2024-02-23T03:36:59;9.70;99.90
64689;DHT22;62504;46.070;14.492;2024-02-23T03:39:27;9.80;99.90
64689;DHT22;62504;46.070;14.492;2024-02-23T03:41:54;9.60;99.90
64689;DHT22;62504;46.070;14.492;2024-02-23T03:44:19;9.60;99.90
64689;DHT22;62504;46.070;14.492;2024-02-23T03:46:45;9.60;99.90
64689;DHT22;62504;46.070;14.492;2024-02-23T03:49:11;9.60;99.90
64689;DHT22;62504;46.070;14.492;2024-02-23T03:51:37;9.50;99.90
64689;DHT22;62504;46.070;14.492;2024-02-23T03:54:05;9.50;99.90
64689;DHT22;62504;46.070;14.492;2024-02-23T03:56:41;9.60;99.90
64689;DHT22;62504;46.070;14.492;2024-02-23T03:59:07;9.70;99.90
64689;DHT22;62504;46.070;14.492;2024-02-23T04:01:36;9.50;99.90
64689;DHT22;62504;46.070;14.492;2024-02-23T04:04:03;9.60;99.90
64689;DHT22;62504;46.070;14.492;2024-02-23T04:06:28;9.50;99.90
64689;DHT22;62504;46.070;14.492;2024-02-23T04:08:54;9.40;99.90
64689;DHT22;62504;46.070;14.492;2024-02-23T04:11:20;9.40;99.90
64689;DHT22;62504;46.070;14.492;2024-02-23T04:13:46;9.40;99.90
64689;DHT22;62504;46.070;14.492;2024-02-23T04:16:11;9.40;99.90
64689;DHT22;62504;46.070;14.492;2024-02-23T04:18:37;9.50;99.90
64689;DHT22;62504;46.070;14.492;2024-02-23T04:21:03;9.50;99.90
64689;DHT22;62504;46.070;14.492;2024-02-23T04:23:28;9.60;99.90
64689;DHT22;62504;46.070;14.492;2024-02-23T04:25:54;9.70;99.90
64689;DHT22;62504;46.070;14.492;2024-02-23T04:28:20;9.80;99.90
64689;DHT22;62504;46.070;14.492;2024-02-23T04:30:45;9.70;99.90
64689;DHT22;62504;46.070;14.492;2024-02-23T04:33:11;9.70;99.90
64689;DHT22;62504;46.070;14.492;2024-02-23T04:35:37;9.70;99.90
64689;DHT22;62504;46.070;14.492;2024-02-23T04:38:02;9.60;99.90
64689;DHT22;62504;46.070;14.492;2024-02-23T04:40:28;9.80;99.90
64689;DHT22;62504;46.070;14.492;2024-02-23T04:42:54;9.90;99.90
64689;DHT22;62504;46.070;14.492;2024-02-23T04:45:19;10.00;99.90
64689;DHT22;62504;46.070;14.492;2024-02-23T04:47:45;9.80;99.90
64689;DHT22;62504;46.070;14.492;2024-02-23T04:50:12;9.90;99.90
64689;DHT22;62504;46.070;14.492;2024-02-23T04:52:38;9.70;99.90
64689;DHT22;62504;46.070;14.492;2024-02-23T04:55:04;9.70;99.90
64689;DHT22;62504;46.070;14.492;2024-02-23T04:57:30;9.50;99.90
64689;DHT22;62504;46.070;14.492;2024-02-23T04:59:56;9.50;99.90
64689;DHT22;62504;46.070;14.492;2024-02-23T05:02:22;9.50;99.90
64689;DHT22;62504;46.070;14.492;2024-02-23T05:04:48;9.40;99.90
64689;DHT22;62504;46.070;14.492;2024-02-23T05:07:13;9.40;99.90
64689;DHT22;62504;46.070;14.492;2024-02-23T05:09:39;9.40;99.90
64689;DHT22;62504;46.070;14.492;2024-02-23T05:12:07;9.30;99.90
64689;DHT22;62504;46.070;14.492;2024-02-23T05:14:33;9.50;99.90
64689;DHT22;62504;46.070;14.492;2024-02-23T05:16:58;9.60;99.90
64689;DHT22;62504;46.070;14.492;2024-02-23T05:19:24;9.50;99.90
64689;DHT22;62504;46.070;14.492;2024-02-23T05:21:50;9.60;99.90
64689;DHT22;62504;46.070;14.492;2024-02-23T05:24:15;9.70;99.90
64689;DHT22;62504;46.070;14.492;2024-02-23T05:26:41;9.80;99.90
64689;DHT22;62504;46.070;14.492;2024-02-23T05:29:08;9.70;99.90
64689;DHT22;62504;46.070;14.492;2024-02-23T05:31:51;9.60;99.90
64689;DHT22;62504;46.070;14.492;2024-02-23T05:34:16;9.70;99.90
64689;DHT22;62504;46.070;14.492;2024-02-23T05:36:43;9.70;99.90
64689;DHT22;62504;46.070;14.492;2024-02-23T05:39:08;9.60;99.90
64689;DHT22;62504;46.070;14.492;2024-02-23T05:41:35;9.60;99.90
64689;DHT22;62504;46.070;14.492;2024-02-23T05:44:03;9.70;99.90
64689;DHT22;62504;46.070;14.492;2024-02-23T05:46:31;9.70;99.90
64689;DHT22;62504;46.070;14.492;2024-02-23T05:48:57;9.70;99.90
64689;DHT22;62504;46.070;14.492;2024-02-23T05:51:23;9.70;99.90
64689;DHT22;62504;46.070;14.492;2024-02-23T05:53:48;9.70;99.90
64689;DHT22;62504;46.070;14.492;2024-02-23T05:56:15;9.90;99.90
64689;DHT22;62504;46.070;14.492;2024-02-23T05:58:40;9.80;99.90
64689;DHT22;62504;46.070;14.492;2024-02-23T06:01:06;9.90;99.90
64689;DHT22;62504;46.070;14.492;2024-02-23T06:03:32;10.00;99.90
64689;DHT22;62504;46.070;14.492;2024-02-23T06:05:58;10.10;99.90
64689;DHT22;62504;46.070;14.492;2024-02-23T06:08:24;10.10;99.90
64689;DHT22;62504;46.070;14.492;2024-02-23T06:10:49;9.90;99.90
64689;DHT22;62504;46.070;14.492;2024-02-23T06:13:15;9.90;99.90
64689;DHT22;62504;46.070;14.492;2024-02-23T06:15:41;9.80;99.90
64689;DHT22;62504;46.070;14.492;2024-02-23T06:18:07;9.90;99.90
64689;DHT22;62504;46.070;14.492;2024-02-23T06:20:33;10.00;99.90
64689;DHT22;62504;46.070;14.492;2024-02-23T06:22:59;10.00;99.90
64689;DHT22;62504;46.070;14.492;2024-02-23T06:25:24;10.10;99.90
64689;DHT22;62504;46.070;14.492;2024-02-23T06:27:50;10.00;99.90
64689;DHT22;62504;46.070;14.492;2024-02-23T06:30:16;10.00;99.90
64689;DHT22;62504;46.070;14.492;2024-02-23T06:32:41;9.80;99.90
64689;DHT22;62504;46.070;14.492;2024-02-23T06:35:08;9.60;99.90
64689;DHT22;62504;46.070;14.492;2024-02-23T06:37:34;9.40;99.90
64689;DHT22;62504;46.070;14.492;2024-02-23T06:39:59;9.50;99.90
64689;DHT22;62504;46.070;14.492;2024-02-23T06:42:25;9.70;99.90
64689;DHT22;62504;46.070;14.492;2024-02-23T06:44:51;9.80;99.90
64689;DHT22;62504;46.070;14.492;2024-02-23T06:47:17;9.80;99.90
64689;DHT22;62504;46.070;14.492;2024-02-23T06:49:43;9.70;99.90
64689;DHT22;62504;46.070;14.492;2024-02-23T06:52:09;9.80;99.90
64689;DHT22;62504;46.070;14.492;2024-02-23T06:54:35;9.80;99.90
64689;DHT22;62504;46.070;14.492;2024-02-23T06:57:01;9.50;99.90
64689;DHT22;62504;46.070;14.492;2024-02-23T06:59:27;9.50;99.90
64689;DHT22;62504;46.070;14.492;2024-02-23T07:01:53;9.50;99.90
64689;DHT22;62504;46.070;14.492;2024-02-23T07:04:19;9.60;99.90
64689;DHT22;62504;46.070;14.492;2024-02-23T07:06:44;9.70;99.90
64689;DHT22;62504;46.070;14.492;2024-02-23T07:09:11;9.80;99.90
64689;DHT22;62504;46.070;14.492;2024-02-23T07:11:37;9.80;99.90
64689;DHT22;62504;46.070;14.492;2024-02-23T07:14:04;9.80;99.90
64689;DHT22;62504;46.070;14.492;2024-02-23T07:16:30;9.70;99.90
64689;DHT22;62504;46.070;14.492;2024-02-23T07:18:55;9.60;99.90
64689;DHT22;62504;46.070;14.492;2024-02-23T07:21:22;9.70;99.90
64689;DHT22;62504;46.070;14.492;2024-02-23T07:23:47;9.80;99.90
64689;DHT22;62504;46.070;14.492;2024-02-23T07:26:13;9.70;99.90
64689;DHT22;62504;46.070;14.492;2024-02-23T07:28:39;9.70;99.90
64689;DHT22;62504;46.070;14.492;2024-02-23T07:31:05;9.70;99.90
64689;DHT22;62504;46.070;14.492;2024-02-23T07:33:30;9.70;99.90
64689;DHT22;62504;46.070;14.492;2024-02-23T07:35:56;9.60;99.90
64689;DHT22;62504;46.070;14.492;2024-02-23T07:38:22;9.60;99.90
64689;DHT22;62504;46.070;14.492;2024-02-23T07:40:48;9.50;99.90
64689;DHT22;62504;46.070;14.492;2024-02-23T07:43:13;9.50;99.90
64689;DHT22;62504;46.070;14.492;2024-02-23T07:45:39;9.50;99.90
64689;DHT22;62504;46.070;14.492;2024-02-23T07:48:05;9.50;99.90
64689;DHT22;62504;46.070;14.492;2024-02-23T07:50:30;9.50;99.90
64689;DHT22;62504;46.070;14.492;2024-02-23T07:52:56;9.60;99.90
64689;DHT22;62504;46.070;14.492;2024-02-23T07:55:22;9.60;99.90
64689;DHT22;62504;46.070;14.492;2024-02-23T07:57:48;9.60;99.90
64689;DHT22;62504;46.070;14.492;2024-02-23T08:00:14;9.50;99.90
64689;DHT22;62504;46.070;14.492;2024-02-23T08:02:40;9.60;99.90
64689;DHT22;62504;46.070;14.492;2024-02-23T08:05:07;9.60;99.90
64689;DHT22;62504;46.070;14.492;2024-02-23T08:07:33;9.60;99.90
64689;DHT22;62504;46.070;14.492;2024-02-23T08:09:58;9.60;99.90
64689;DHT22;62504;46.070;14.492;2024-02-23T08:12:25;9.50;99.90
64689;DHT22;62504;46.070;14.492;2024-02-23T08:14:50;9.50;99.90
64689;DHT22;62504;46.070;14.492;2024-02-23T08:17:18;9.50;99.90
64689;DHT22;62504;46.070;14.492;2024-02-23T08:19:44;9.50;99.90
64689;DHT22;62504;46.070;14.492;2024-02-23T08:22:10;9.30;99.90
64689;DHT22;62504;46.070;14.492;2024-02-23T08:24:36;9.40;99.90
64689;DHT22;62504;46.070;14.492;2024-02-23T08:27:01;9.50;99.90
64689;DHT22;62504;46.070;14.492;2024-02-23T08:29:28;9.60;99.90
64689;DHT22;62504;46.070;14.492;2024-02-23T08:31:54;9.60;99.90
64689;DHT22;62504;46.070;14.492;2024-02-23T08:34:19;9.70;99.90
64689;DHT22;62504;46.070;14.492;2024-02-23T08:36:45;9.60;99.90
64689;DHT22;62504;46.070;14.492;2024-02-23T08:39:11;9.70;99.90
64689;DHT22;62504;46.070;14.492;2024-02-23T08:41:36;9.50;99.90
64689;DHT22;62504;46.070;14.492;2024-02-23T08:44:02;9.30;99.90
64689;DHT22;62504;46.070;14.492;2024-02-23T08:46:28;9.40;99.90
64689;DHT22;62504;46.070;14.492;2024-02-23T08:48:53;9.50;99.90
64689;DHT22;62504;46.070;14.492;2024-02-23T08:51:19;9.40;99.90
64689;DHT22;62504;46.070;14.492;2024-02-23T08:53:45;9.40;99.90
64689;DHT22;62504;46.070;14.492;2024-02-23T08:56:12;9.30;99.90
64689;DHT22;62504;46.070;14.492;2024-02-23T08:58:38;9.30;99.90
64689;DHT22;62504;46.070;14.492;2024-02-23T09:01:04;9.50;99.90
64689;DHT22;62504;46.070;14.492;2024-02-23T09:03:30;9.50;99.90
64689;DHT22;62504;46.070;14.492;2024-02-23T09:05:57;9.50;99.90
64689;DHT22;62504;46.070;14.492;2024-02-23T09:08:22;9.40;99.90
64689;DHT22;62504;46.070;14.492;2024-02-23T09:10:48;9.40;99.90
64689;DHT22;62504;46.070;14.492;2024-02-23T09:13:14;9.40;99.90
64689;DHT22;62504;46.070;14.492;2024-02-23T09:15:40;9.40;99.90
64689;DHT22;62504;46.070;14.492;2024-02-23T09:18:07;9.60;99.90
64689;DHT22;62504;46.070;14.492;2024-02-23T09:20:33;9.70;99.90
64689;DHT22;62504;46.070;14.492;2024-02-23T09:22:59;9.70;99.90
64689;DHT22;62504;46.070;14.492;2024-02-23T09:25:24;9.90;99.90
64689;DHT22;62504;46.070;14.492;2024-02-23T09:27:50;9.80;99.90
64689;DHT22;62504;46.070;14.492;2024-02-23T09:30:16;9.80;99.90
64689;DHT22;62504;46.070;14.492;2024-02-23T09:32:41;9.60;99.90
64689;DHT22;62504;46.070;14.492;2024-02-23T09:35:07;9.50;99.90
64689;DHT22;62504;46.070;14.492;2024-02-23T09:37:33;9.60;99.90
64689;DHT22;62504;46.070;14.492;2024-02-23T09:39:59;9.60;99.90
64689;DHT22;62504;46.070;14.492;2024-02-23T09:42:24;9.40;99.90
64689;DHT22;62504;46.070;14.492;2024-02-23T09:44:59;9.40;99.90
64689;DHT22;62504;46.070;14.492;2024-02-23T09:47:28;9.50;99.90
64689;DHT22;62504;46.070;14.492;2024-02-23T09:49:55;9.20;99.90
64689;DHT22;62504;46.070;14.492;2024-02-23T09:52:21;9.20;99.90
64689;DHT22;62504;46.070;14.492;2024-02-23T09:54:48;9.40;99.90
64689;DHT22;62504;46.070;14.492;2024-02-23T09:57:15;9.50;99.90
64689;DHT22;62504;46.070;14.492;2024-02-23T09:59:41;9.50;99.90
64689;DHT22;62504;46.070;14.492;2024-02-23T10:02:14;9.50;99.90
64689;DHT22;62504;46.070;14.492;2024-02-23T10:04:42;9.60;99.90
64689;DHT22;62504;46.070;14.492;2024-02-23T10:07:09;9.50;99.90
64689;DHT22;62504;46.070;14.492;2024-02-23T10:09:35;9.50;99.90
64689;DHT22;62504;46.070;14.492;2024-02-23T10:12:02;9.40;99.90
64689;DHT22;62504;46.070;14.492;2024-02-23T10:14:27;9.50;99.90
64689;DHT22;62504;46.070;14.492;2024-02-23T10:16:53;9.60;99.90
64689;DHT22;62504;46.070;14.492;2024-02-23T10:19:21;9.60;99.90
64689;DHT22;62504;46.070;14.492;2024-02-23T10:21:46;9.50;99.90
64689;DHT22;62504;46.070;14.492;2024-02-23T10:24:13;9.50;99.90
64689;DHT22;62504;46.070;14.492;2024-02-23T10:26:41;9.50;99.90
64689;DHT22;62504;46.070;14.492;2024-02-23T10:29:07;9.80;99.90
64689;DHT22;62504;46.070;14.492;2024-02-23T10:31:35;9.90;99.90
64689;DHT22;62504;46.070;14.492;2024-02-23T10:34:08;9.80;99.90
64689;DHT22;62504;46.070;14.492;2024-02-23T10:36:40;9.60;99.90
64689;DHT22;62504;46.070;14.492;2024-02-23T10:39:06;9.50;99.90
64689;DHT22;62504;46.070;14.492;2024-02-23T10:41:35;9.40;99.90
64689;DHT22;62504;46.070;14.492;2024-02-23T10:44:02;9.60;99.90
64689;DHT22;62504;46.070;14.492;2024-02-23T10:46:31;9.80;99.90
64689;DHT22;62504;46.070;14.492;2024-02-23T10:48:58;9.80;99.90
64689;DHT22;62504;46.070;14.492;2024-02-23T10:51:27;9.90;99.90
64689;DHT22;62504;46.070;14.492;2024-02-23T10:53:53;9.90;99.90
64689;DHT22;62504;46.070;14.492;2024-02-23T10:56:19;9.80;99.90
64689;DHT22;62504;46.070;14.492;2024-02-23T10:58:45;9.70;99.90
64689;DHT22;62504;46.070;14.492;2024-02-23T11:01:12;9.60;99.90
64689;DHT22;62504;46.070;14.492;2024-02-23T11:03:41;9.70;99.90
64689;DHT22;62504;46.070;14.492;2024-02-23T11:06:08;9.70;99.90
64689;DHT22;62504;46.070;14.492;2024-02-23T11:08:34;9.60;99.90
64689;DHT22;62504;46.070;14.492;2024-02-23T11:11:09;9.50;99.90
64689;DHT22;62504;46.070;14.492;2024-02-23T11:13:40;9.70;99.90
64689;DHT22;62504;46.070;14.492;2024-02-23T11:16:06;9.80;99.90
64689;DHT22;62504;46.070;14.492;2024-02-23T11:18:36;9.70;99.90
64689;DHT22;62504;46.070;14.492;2024-02-23T11:21:03;9.80;99.90
64689;DHT22;62504;46.070;14.492;2024-02-23T11:24:02;9.90;99.90
64689;DHT22;62504;46.070;14.492;2024-02-23T11:26:28;9.70;99.90
64689;DHT22;62504;46.070;14.492;2024-02-23T11:28:53;9.80;99.90
64689;DHT22;62504;46.070;14.492;2024-02-23T11:31:29;9.70;99.90
64689;DHT22;62504;46.070;14.492;2024-02-23T11:33:56;9.70;99.90
64689;DHT22;62504;46.070;14.492;2024-02-23T11:36:35;9.60;99.90
64689;DHT22;62504;46.070;14.492;2024-02-23T11:39:02;9.60;99.90
64689;DHT22;62504;46.070;14.492;2024-02-23T11:41:28;9.80;99.90
64689;DHT22;62504;46.070;14.492;2024-02-23T11:43:55;9.70;99.90
64689;DHT22;62504;46.070;14.492;2024-02-23T11:46:21;9.80;99.90
64689;DHT22;62504;46.070;14.492;2024-02-23T11:48:48;9.90;99.90
64689;DHT22;62504;46.070;14.492;2024-02-23T11:51:19;9.90;99.90
64689;DHT22;62504;46.070;14.492;2024-02-23T11:53:46;10.00;99.90
64689;DHT22;62504;46.070;14.492;2024-02-23T11:56:13;9.80;99.90
64689;DHT22;62504;46.070;14.492;2024-02-23T11:58:40;9.60;99.90
64689;DHT22;62504;46.070;14.492;2024-02-23T12:01:06;9.80;99.90
64689;DHT22;62504;46.070;14.492;2024-02-23T12:03:32;9.90;99.90
64689;DHT22;62504;46.070;14.492;2024-02-23T12:06:01;9.90;99.90
64689;DHT22;62504;46.070;14.492;2024-02-23T12:08:29;9.70;99.90
64689;DHT22;62504;46.070;14.492;2024-02-23T12:10:56;9.60;99.90
64689;DHT22;62504;46.070;14.492;2024-02-23T12:13:22;9.80;99.90
64689;DHT22;62504;46.070;14.492;2024-02-23T12:15:51;10.00;99.90
64689;DHT22;62504;46.070;14.492;2024-02-23T12:18:18;10.10;99.90
64689;DHT22;62504;46.070;14.492;2024-02-23T12:20:47;10.00;99.90
64689;DHT22;62504;46.070;14.492;2024-02-23T12:23:13;9.90;99.90
64689;DHT22;62504;46.070;14.492;2024-02-23T12:25:38;10.10;99.90
64689;DHT22;62504;46.070;14.492;2024-02-23T12:28:04;10.00;99.90
64689;DHT22;62504;46.070;14.492;2024-02-23T12:30:30;10.00;99.90
64689;DHT22;62504;46.070;14.492;2024-02-23T12:33:04;10.00;99.90
64689;DHT22;62504;46.070;14.492;2024-02-23T12:35:30;10.00;99.90
64689;DHT22;62504;46.070;14.492;2024-02-23T12:37:55;10.00;99.90
64689;DHT22;62504;46.070;14.492;2024-02-23T12:40:21;10.10;99.90
64689;DHT22;62504;46.070;14.492;2024-02-23T12:42:47;10.00;99.90
64689;DHT22;62504;46.070;14.492;2024-02-23T12:45:14;10.00;99.90
64689;DHT22;62504;46.070;14.492;2024-02-23T12:47:39;10.00;99.90
64689;DHT22;62504;46.070;14.492;2024-02-23T12:50:06;10.20;99.90
64689;DHT22;62504;46.070;14.492;2024-02-23T12:52:33;10.10;99.90
64689;DHT22;62504;46.070;14.492;2024-02-23T12:54:59;10.00;99.90
64689;DHT22;62504;46.070;14.492;2024-02-23T12:57:25;10.00;99.90
64689;DHT22;62504;46.070;14.492;2024-02-23T12:59:51;9.90;99.90
64689;DHT22;62504;46.070;14.492;2024-02-23T13:02:17;9.90;99.90
64689;DHT22;62504;46.070;14.492;2024-02-23T13:04:43;9.90;99.90
64689;DHT22;62504;46.070;14.492;2024-02-23T13:07:14;10.10;99.90
64689;DHT22;62504;46.070;14.492;2024-02-23T13:09:41;10.10;99.90
64689;DHT22;62504;46.070;14.492;2024-02-23T13:12:06;9.90;99.90
64689;DHT22;62504;46.070;14.492;2024-02-23T13:14:32;10.00;99.90
64689;DHT22;62504;46.070;14.492;2024-02-23T13:16:58;10.10;99.90
64689;DHT22;62504;46.070;14.492;2024-02-23T13:19:23;9.90;99.90
64689;DHT22;62504;46.070;14.492;2024-02-23T13:21:49;9.80;99.90
64689;DHT22;62504;46.070;14.492;2024-02-23T13:24:15;9.80;99.90
64689;DHT22;62504;46.070;14.492;2024-02-23T13:26:41;9.90;99.90
64689;DHT22;62504;46.070;14.492;2024-02-23T13:29:06;10.00;99.90
64689;DHT22;62504;46.070;14.492;2024-02-23T13:31:32;9.80;99.90
64689;DHT22;62504;46.070;14.492;2024-02-23T13:33:58;9.80;99.90
64689;DHT22;62504;46.070;14.492;2024-02-23T13:36:24;9.90;99.90
64689;DHT22;62504;46.070;14.492;2024-02-23T13:38:49;10.00;99.90
64689;DHT22;62504;46.070;14.492;2024-02-23T13:41:17;10.10;99.90
64689;DHT22;62504;46.070;14.492;2024-02-23T13:43:42;10.20;99.90
64689;DHT22;62504;46.070;14.492;2024-02-23T13:46:08;10.30;99.90
64689;DHT22;62504;46.070;14.492;2024-02-23T13:48:35;10.20;99.90
64689;DHT22;62504;46.070;14.492;2024-02-23T13:51:00;10.10;99.90
64689;DHT22;62504;46.070;14.492;2024-02-23T13:53:32;10.10;99.90
64689;DHT22;62504;46.070;14.492;2024-02-23T13:55:58;10.00;99.90
64689;DHT22;62504;46.070;14.492;2024-02-23T13:58:26;9.90;99.90
64689;DHT22;62504;46.070;14.492;2024-02-23T14:00:53;10.10;99.90
64689;DHT22;62504;46.070;14.492;2024-02-23T14:03:18;10.10;99.90
64689;DHT22;62504;46.070;14.492;2024-02-23T14:05:44;10.00;99.90
64689;DHT22;62504;46.070;14.492;2024-02-23T14:08:11;10.10;99.90
64689;DHT22;62504;46.070;14.492;2024-02-23T14:10:37;10.30;99.90
64689;DHT22;62504;46.070;14.492;2024-02-23T14:13:03;10.20;99.90
64689;DHT22;62504;46.070;14.492;2024-02-23T14:15:29;10.00;99.90
64689;DHT22;62504;46.070;14.492;2024-02-23T14:17:54;10.10;99.90
64689;DHT22;62504;46.070;14.492;2024-02-23T14:20:20;10.20;99.90
64689;DHT22;62504;46.070;14.492;2024-02-23T14:22:46;10.10;99.90
64689;DHT22;62504;46.070;14.492;2024-02-23T14:25:12;10.00;99.90
64689;DHT22;62504;46.070;14.492;2024-02-23T14:27:38;9.80;99.90
64689;DHT22;62504;46.070;14.492;2024-02-23T14:30:04;9.80;99.90
64689;DHT22;62504;46.070;14.492;2024-02-23T14:32:30;10.00;99.90
64689;DHT22;62504;46.070;14.492;2024-02-23T14:34:56;10.00;99.90
64689;DHT22;62504;46.070;14.492;2024-02-23T14:37:23;10.10;99.90
64689;DHT22;62504;46.070;14.492;2024-02-23T14:39:48;10.00;99.90
64689;DHT22;62504;46.070;14.492;2024-02-23T14:42:14;10.00;99.90
64689;DHT22;62504;46.070;14.492;2024-02-23T14:44:40;10.00;99.90
64689;DHT22;62504;46.070;14.492;2024-02-23T14:47:06;10.00;99.90
64689;DHT22;62504;46.070;14.492;2024-02-23T14:49:32;10.00;99.90
64689;DHT22;62504;46.070;14.492;2024-02-23T14:51:58;10.10;99.90
64689;DHT22;62504;46.070;14.492;2024-02-23T14:54:23;10.10;99.90
64689;DHT22;62504;46.070;14.492;2024-02-23T14:56:49;10.00;99.90
64689;DHT22;62504;46.070;14.492;2024-02-23T14:59:15;10.00;99.90
64689;DHT22;62504;46.070;14.492;2024-02-23T15:01:40;10.00;99.90
64689;DHT22;62504;46.070;14.492;2024-02-23T15:04:07;10.10;99.90
64689;DHT22;62504;46.070;14.492;2024-02-23T15:06:33;10.00;99.90
64689;DHT22;62504;46.070;14.492;2024-02-23T15:09:00;10.10;99.90
64689;DHT22;62504;46.070;14.492;2024-02-23T15:11:25;10.20;99.90
64689;DHT22;62504;46.070;14.492;2024-02-23T15:13:51;10.30;99.90
64689;DHT22;62504;46.070;14.492;2024-02-23T15:16:25;10.40;99.90
64689;DHT22;62504;46.070;14.492;2024-02-23T15:18:51;10.40;99.90
64689;DHT22;62504;46.070;14.492;2024-02-23T15:21:17;10.30;99.90
64689;DHT22;62504;46.070;14.492;2024-02-23T15:23:43;10.30;99.90